Time;durP1;ratioP1;P1;durP2;ratioP2;P2;SDS_P1;SDS_P2;PMS_P1;PMS_P2;Temp;Humidity;BMP_temperature;BMP_pressure;BME280_temperature;BME280_humidity;BME280_pressure;Samples;Min_cycle;Max_cycle;Signal;HPM_P1;HPM_P2
2021/08/22 00:00:41;;;;;;;2.55;0.30;;;;;;;21.97;41.78;98668.19;6214400;23;20013;-64
2021/08/22 00:03:07;;;;;;;1.55;1.45;;;;;;;21.93;41.82;98667.16;6213841;23;20016;-64
2021/08/22 00:05:33;;;;;;;0.70;0.70;;;;;;;21.88;41.96;98662.50;6214715;23;20291;-64
2021/08/22 00:07:58;;;;;;;1.55;0.65;;;;;;;21.85;42.08;98663.13;6214355;23;20016;-64
2021/08/22 00:10:24;;;;;;;2.00;1.13;;;;;;;21.81;42.16;98667.69;6214163;23;20019;-64
2021/08/22 00:12:50;;;;;;;4.47;2.85;;;;;;;21.77;42.06;98675.03;6214112;23;20034;-64
2021/08/22 00:15:16;;;;;;;1.25;0.50;;;;;;;21.73;42.14;98669.25;6214080;23;20008;-65
2021/08/22 00:17:42;;;;;;;0.47;0.47;;;;;;;21.69;42.39;98669.03;6214310;23;20408;-65
2021/08/22 00:20:09;;;;;;;0.47;0.47;;;;;;;21.67;42.24;98664.88;6212830;23;20047;-64
2021/08/22 00:22:35;;;;;;;0.28;0.28;;;;;;;21.64;42.24;98663.56;6214587;23;20373;-65
2021/08/22 00:25:01;;;;;;;0.43;0.43;;;;;;;21.62;42.37;98660.25;6214191;23;20457;-64
2021/08/22 00:27:26;;;;;;;0.52;0.50;;;;;;;21.61;42.27;98663.34;6214059;23;20016;-63
2021/08/22 00:29:52;;;;;;;1.00;0.73;;;;;;;21.60;42.49;98670.91;6214109;23;20009;-64
2021/08/22 00:32:18;;;;;;;4.47;0.60;;;;;;;21.60;42.08;98658.88;6214431;23;20012;-65
2021/08/22 00:34:43;;;;;;;0.57;0.38;;;;;;;21.61;42.30;98666.16;6213549;23;20008;-66
2021/08/22 00:37:09;;;;;;;1.13;0.73;;;;;;;21.61;42.41;98658.59;6214112;23;20100;-65
2021/08/22 00:39:35;;;;;;;1.75;0.85;;;;;;;21.65;42.20;98662.41;6214404;23;20441;-65
2021/08/22 00:42:01;;;;;;;0.57;0.57;;;;;;;21.68;42.36;98656.19;6214138;23;20012;-65
2021/08/22 00:44:27;;;;;;;0.85;0.47;;;;;;;21.71;42.25;98660.34;6214145;23;20008;-65
2021/08/22 00:46:55;;;;;;;1.33;1.00;;;;;;;21.79;41.88;98658.75;6213889;23;20016;-65
2021/08/22 00:49:22;;;;;;;1.83;0.95;;;;;;;21.87;41.56;98652.44;6213999;23;20040;-64
2021/08/22 00:51:48;;;;;;;0.45;0.45;;;;;;;21.96;41.75;98655.34;6214273;23;20013;-67
2021/08/22 00:54:14;;;;;;;1.40;0.85;;;;;;;22.03;41.47;98653.75;6215649;23;20024;-65
2021/08/22 00:56:40;;;;;;;0.20;0.20;;;;;;;22.11;41.24;98656.94;6215750;23;20012;-66
2021/08/22 00:59:11;;;;;;;0.85;0.77;;;;;;;22.15;41.39;98647.59;6215909;23;20009;-67
2021/08/22 01:01:38;;;;;;;0.70;0.60;;;;;;;22.25;41.38;98652.16;6215956;23;20059;-68
2021/08/22 01:04:07;;;;;;;0.30;0.30;;;;;;;22.34;41.21;98655.84;6214776;23;20143;-66
2021/08/22 01:07:23;;;;;;;0.93;0.88;;;;;;;22.40;41.20;98650.97;6215503;23;20013;-65
2021/08/22 01:09:50;;;;;;;4.68;0.80;;;;;;;22.50;40.64;98652.69;6094298;23;20026;-64
2021/08/22 01:12:32;;;;;;;0.77;0.68;;;;;;;22.57;40.80;98642.72;6094653;23;20448;-63
2021/08/22 01:15:07;;;;;;;0.77;0.40;;;;;;;22.66;40.55;98644.72;6165349;23;20470;-63
2021/08/22 01:17:35;;;;;;;0.98;0.40;;;;;;;22.72;40.62;98647.09;6215238;23;20036;-65
2021/08/22 01:20:19;;;;;;;1.17;0.90;;;;;;;22.83;40.59;98650.44;6215504;23;20012;-62
2021/08/22 01:22:46;;;;;;;;;;;;;;;22.92;40.33;98644.88;6215902;23;20090;-63
2021/08/22 01:25:13;;;;;;;2.97;0.95;;;;;;;22.98;40.27;98643.63;6215288;23;19918;-67
2021/08/22 01:27:41;;;;;;;0.68;0.40;;;;;;;23.08;39.99;98643.31;6215681;23;20032;-68
2021/08/22 01:30:12;;;;;;;0.52;0.30;;;;;;;23.20;40.17;98645.56;6188682;23;20285;-65
2021/08/22 01:32:42;;;;;;;0.30;0.30;;;;;;;23.31;40.06;98657.31;6215469;23;20449;-66
2021/08/22 01:35:10;;;;;;;9.93;0.65;;;;;;;23.43;39.65;98651.09;6214639;23;20008;-66
2021/08/22 01:37:38;;;;;;;1.35;0.95;;;;;;;23.57;39.67;98651.78;6215523;23;20114;-65
2021/08/22 01:40:06;;;;;;;0.70;0.32;;;;;;;23.97;39.13;98653.72;6215491;23;20127;-65
2021/08/22 01:42:34;;;;;;;0.73;0.73;;;;;;;24.83;37.82;98646.44;6215356;23;20013;-65
2021/08/22 01:45:03;;;;;;;0.30;0.30;;;;;;;25.88;36.32;98643.22;6215134;23;20446;-65
2021/08/22 01:47:30;;;;;;;0.30;0.30;;;;;;;26.90;34.67;98643.03;6215197;23;20008;-66
2021/08/22 01:49:56;;;;;;;0.47;0.45;;;;;;;27.79;33.78;98643.59;6215368;23;20431;-66
2021/08/22 01:52:23;;;;;;;0.57;0.57;;;;;;;28.53;32.95;98651.09;6215621;23;20054;-64
2021/08/22 01:54:49;;;;;;;0.13;0.13;;;;;;;29.19;32.35;98659.00;6215125;23;20020;-65
2021/08/22 01:57:14;;;;;;;0.20;0.20;;;;;;;29.77;31.99;98656.84;6215121;23;20012;-65
2021/08/22 01:59:40;;;;;;;0.38;0.30;;;;;;;30.37;31.40;98657.47;6215549;23;20341;-65
2021/08/22 02:02:06;;;;;;;0.47;0.47;;;;;;;30.90;30.93;98665.47;6215214;23;20040;-65
2021/08/22 02:04:55;;;;;;;0.95;0.63;;;;;;;31.34;30.73;98654.94;6214185;23;20013;-64
2021/08/22 02:07:24;;;;;;;1.10;0.82;;;;;;;31.85;30.24;98648.91;6215336;23;20012;-65
2021/08/22 02:10:08;;;;;;;1.35;0.68;;;;;;;32.42;29.94;98662.31;6215420;23;20019;-68
2021/08/22 02:12:34;;;;;;;0.10;0.10;;;;;;;32.92;29.64;98665.81;6214938;23;20012;-65
2021/08/22 02:15:09;;;;;;;0.30;0.30;;;;;;;33.43;29.25;98670.00;6214773;23;20016;-64
2021/08/22 02:17:44;;;;;;;0.25;0.25;;;;;;;33.86;28.93;98661.88;6215238;23;20012;-64
2021/08/22 02:20:10;;;;;;;0.40;0.40;;;;;;;34.21;28.42;98676.72;6215097;23;20019;-65
2021/08/22 02:22:41;;;;;;;0.35;0.35;;;;;;;34.60;28.68;98675.31;6221523;23;20065;-63
2021/08/22 02:25:08;;;;;;;0.45;0.45;;;;;;;35.02;27.88;98679.59;6215003;23;20009;-65
2021/08/22 02:27:34;;;;;;;0.22;0.20;;;;;;;35.47;27.51;98680.13;6214669;23;20727;-65
2021/08/22 02:30:00;;;;;;;0.10;0.10;;;;;;;35.88;27.29;98679.75;6213992;23;20445;-67
2021/08/22 02:32:25;;;;;;;0.32;0.32;;;;;;;36.26;27.33;98679.25;6213818;23;20009;-65
2021/08/22 02:34:51;;;;;;;2.55;0.73;;;;;;;36.55;27.19;98671.44;6212928;23;20004;-65
2021/08/22 02:37:18;;;;;;;0.85;0.47;;;;;;;36.85;27.15;98681.53;6213745;23;20080;-65
2021/08/22 02:39:47;;;;;;;1.30;1.08;;;;;;;37.13;26.85;98679.75;6214374;23;20074;-65
2021/08/22 02:42:13;;;;;;;0.40;0.17;;;;;;;37.46;26.83;98677.53;6214689;23;20058;-65
2021/08/22 02:44:39;;;;;;;0.70;0.40;;;;;;;37.86;26.32;98683.78;6214654;23;20012;-64
2021/08/22 02:47:05;;;;;;;1.02;0.60;;;;;;;38.31;25.89;98691.53;6214725;23;20030;-64
2021/08/22 02:49:31;;;;;;;0.32;0.32;;;;;;;38.69;25.52;98678.03;6214740;23;20016;-63
2021/08/22 02:51:56;;;;;;;1.45;0.95;;;;;;;39.00;25.51;98686.63;6214860;23;20036;-62
2021/08/22 02:54:22;;;;;;;0.17;0.17;;;;;;;39.32;25.31;98673.91;6214690;23;20146;-64
2021/08/22 02:56:48;;;;;;;0.30;0.30;;;;;;;39.71;24.87;98686.84;6214321;23;20127;-65
2021/08/22 02:59:13;;;;;;;0.20;0.20;;;;;;;40.72;23.94;98687.88;6214497;23;20005;-65
2021/08/22 03:01:39;;;;;;;0.40;0.40;;;;;;;41.24;23.29;98677.72;6214657;23;20437;-65
2021/08/22 03:04:05;;;;;;;0.40;0.40;;;;;;;41.52;23.53;98680.38;6214039;23;20058;-64
2021/08/22 03:06:31;;;;;;;0.28;0.20;;;;;;;41.74;23.33;98678.59;6214263;23;20012;-64
2021/08/22 03:08:57;;;;;;;0.93;0.57;;;;;;;41.90;23.40;98677.00;6214786;23;20032;-64
2021/08/22 03:11:22;;;;;;;0.75;0.50;;;;;;;42.12;23.36;98689.56;6214555;23;20016;-64
2021/08/22 03:13:49;;;;;;;0.70;0.20;;;;;;;42.37;23.23;98682.34;6214512;23;20020;-64
2021/08/22 03:16:15;;;;;;;0.75;0.60;;;;;;;42.63;23.12;98682.47;6214316;23;20009;-68
2021/08/22 03:18:41;;;;;;;0.20;0.20;;;;;;;42.75;22.58;98689.53;6214629;23;20106;-66
2021/08/22 03:21:07;;;;;;;0.57;0.57;;;;;;;43.00;22.91;98688.78;6214763;23;20434;-66
2021/08/22 03:23:33;;;;;;;0.20;0.20;;;;;;;43.15;22.62;98686.28;6188425;23;20008;-64
2021/08/22 03:25:58;;;;;;;0.73;0.73;;;;;;;43.29;22.63;98688.72;6213487;23;20044;-65
2021/08/22 03:28:26;;;;;;;0.30;0.30;;;;;;;43.52;22.27;98687.59;6213269;23;20035;-64
2021/08/22 03:30:53;;;;;;;0.55;0.30;;;;;;;43.71;22.40;98682.03;6212893;23;20349;-64
2021/08/22 03:33:19;;;;;;;0.47;0.40;;;;;;;43.89;22.14;98682.25;6212407;23;20453;-63
2021/08/22 03:35:46;;;;;;;0.68;0.68;;;;;;;44.03;21.92;98672.25;6213122;23;20008;-63
2021/08/22 03:38:11;;;;;;;0.63;0.63;;;;;;;44.10;22.11;98682.78;6213129;23;20099;-63
2021/08/22 03:40:37;;;;;;;0.38;0.38;;;;;;;44.30;21.91;98684.59;6213046;23;20087;-63
2021/08/22 03:43:03;;;;;;;0.40;0.35;;;;;;;44.39;21.95;98678.88;6212748;23;20009;-63
2021/08/22 03:45:29;;;;;;;0.20;0.20;;;;;;;44.57;21.62;98681.09;6212990;23;20067;-64
2021/08/22 03:47:55;;;;;;;1.98;0.73;;;;;;;44.78;21.50;98685.31;6212820;23;20032;-63
2021/08/22 03:50:20;;;;;;;0.35;0.22;;;;;;;45.12;21.28;98672.81;6213448;23;20023;-64
2021/08/22 03:52:48;;;;;;;0.65;0.65;;;;;;;45.51;20.92;98678.31;6187549;23;20009;-64
2021/08/22 03:55:15;;;;;;;1.70;0.60;;;;;;;45.64;20.79;98670.28;6214437;23;20017;-63
2021/08/22 03:57:41;;;;;;;0.43;0.43;;;;;;;45.51;20.75;98678.31;6214424;23;20092;-64
2021/08/22 04:00:07;;;;;;;0.73;0.73;;;;;;;45.63;21.04;98665.81;6214555;23;20036;-63
2021/08/22 04:02:33;;;;;;;0.63;0.63;;;;;;;45.77;20.69;98673.06;6213134;23;20669;-63
2021/08/22 04:05:03;;;;;;;0.40;0.40;;;;;;;45.99;20.70;98675.09;6207799;23;20445;-63
2021/08/22 04:08:09;;;;;;;0.40;0.40;;;;;;;46.29;20.84;98673.38;6209738;23;20020;-62
2021/08/22 04:14:38;;;;;;;0.45;0.45;;;;;;;46.96;20.38;98670.75;6205522;23;20544;-63
2021/08/22 04:17:44;;;;;;;0.38;0.38;;;;;;;47.11;20.18;98670.06;6212847;23;20012;-64
2021/08/22 04:20:49;;;;;;;0.40;0.40;;;;;;;47.26;19.95;98670.94;6216454;23;20059;-63
2021/08/22 04:27:18;;;;;;;2.15;0.47;;;;;;;47.27;20.16;98672.56;6201544;23;20023;-65
2021/08/22 04:37:11;;;;;;;1.90;1.10;;;;;;;47.83;19.65;98669.44;6205208;23;20074;-63
2021/08/22 04:47:05;;;;;;;0.40;0.30;;;;;;;43.27;23.97;98659.47;6203565;23;20047;-63
2021/08/22 04:57:00;;;;;;;1.25;0.60;;;;;;;37.54;29.13;98658.25;6202340;23;20404;-63
2021/08/22 05:06:52;;;;;;;0.95;0.60;;;;;;;34.59;30.86;98657.41;6204671;23;20069;-63
2021/08/22 05:09:57;;;;;;;0.35;0.35;;;;;;;34.03;31.40;98656.69;6205064;23;20020;-64
2021/08/22 05:13:02;;;;;;;0.20;0.20;;;;;;;33.67;31.34;98653.53;6212223;23;20142;-66
2021/08/22 05:16:08;;;;;;;0.50;0.50;;;;;;;33.39;31.29;98666.28;6184921;23;20117;-65
2021/08/22 05:19:14;;;;;;;0.75;0.60;;;;;;;33.17;31.11;98660.38;6212238;23;20346;-63
2021/08/22 05:22:19;;;;;;;0.25;0.25;;;;;;;32.94;31.16;98651.22;6212290;23;20083;-63
2021/08/22 05:25:24;;;;;;;0.40;0.40;;;;;;;32.75;31.01;98660.75;6185309;23;20055;-65
2021/08/22 05:35:16;;;;;;;1.08;0.77;;;;;;;32.22;31.00;98658.81;6203973;23;20067;-65
2021/08/22 05:38:22;;;;;;;1.95;0.47;;;;;;;32.06;31.03;98648.41;6204773;23;20023;-63
2021/08/22 05:41:27;;;;;;;0.70;0.20;;;;;;;32.06;31.01;98654.09;6211525;23;20015;-63
2021/08/22 05:44:34;;;;;;;0.52;0.20;;;;;;;31.98;30.87;98652.34;6211757;23;20017;-62
2021/08/22 05:57:48;;;;;;;0.35;0.35;;;;;;;31.67;30.75;98651.47;6201838;23;20027;-64
2021/08/22 06:00:48;;;;;;;0.30;0.30;;;;;;;31.69;30.62;98657.59;6203705;23;20012;-65
2021/08/22 06:03:13;;;;;;;0.50;0.50;;;;;;;31.61;30.70;98661.50;6184947;23;20091;-63
2021/08/22 06:05:39;;;;;;;1.67;0.52;;;;;;;31.59;30.81;98655.38;6211068;23;20472;-64
2021/08/22 06:08:05;;;;;;;1.30;0.63;;;;;;;31.58;30.76;98656.56;6211765;23;20013;-62
2021/08/22 06:10:31;;;;;;;0.32;0.32;;;;;;;31.59;30.83;98661.06;6211977;23;20058;-63
2021/08/22 06:12:57;;;;;;;0.40;0.40;;;;;;;31.59;30.53;98664.72;6195502;23;20008;-63
2021/08/22 06:15:23;;;;;;;0.88;0.65;;;;;;;31.64;30.52;98660.75;6212308;23;20464;-63
2021/08/22 06:17:48;;;;;;;0.10;0.10;;;;;;;31.66;30.28;98652.66;6211687;23;20015;-62
2021/08/22 06:20:14;;;;;;;1.60;0.75;;;;;;;31.68;30.25;98657.97;6211228;23;20031;-62
2021/08/22 06:22:40;;;;;;;0.30;0.30;;;;;;;31.69;30.19;98651.91;6212014;23;20066;-63
2021/08/22 06:25:06;;;;;;;0.85;0.60;;;;;;;31.72;30.40;98656.00;6211626;23;20078;-64
2021/08/22 06:27:32;;;;;;;0.60;0.60;;;;;;;31.72;30.32;98651.13;6184434;23;20019;-64
2021/08/22 06:30:00;;;;;;;1.70;1.10;;;;;;;31.76;30.14;98659.72;6211071;23;20016;-63
2021/08/22 06:32:26;;;;;;;1.55;0.28;;;;;;;31.79;30.25;98659.78;6211886;23;20075;-64
2021/08/22 06:34:51;;;;;;;0.45;0.45;;;;;;;31.85;30.17;98665.13;6208873;23;20009;-63
2021/08/22 06:37:17;;;;;;;0.77;0.77;;;;;;;31.86;29.86;98661.06;6212399;23;20426;-64
2021/08/22 06:39:47;;;;;;;0.85;0.57;;;;;;;31.87;30.11;98662.72;6209998;23;20020;-67
2021/08/22 06:42:13;;;;;;;0.47;0.40;;;;;;;31.87;29.95;98652.19;6212587;23;20472;-63
2021/08/22 06:44:39;;;;;;;1.50;0.70;;;;;;;31.87;30.11;98657.03;6212284;23;20342;-65
2021/08/22 06:47:07;;;;;;;0.45;0.30;;;;;;;31.88;29.84;98650.19;6186211;23;20004;-64
2021/08/22 06:49:32;;;;;;;0.40;0.40;;;;;;;31.93;30.09;98656.31;6212438;23;20023;-63
2021/08/22 06:51:58;;;;;;;0.70;0.68;;;;;;;31.96;30.00;98654.75;6212024;23;20345;-62
2021/08/22 06:54:24;;;;;;;0.22;0.22;;;;;;;31.96;29.74;98646.22;6210250;23;20020;-63
2021/08/22 06:56:52;;;;;;;1.50;0.20;;;;;;;31.97;29.85;98640.16;6212784;23;20091;-62
2021/08/22 06:59:18;;;;;;;1.02;0.63;;;;;;;32.00;29.68;98643.47;6212426;23;20079;-62
2021/08/22 07:01:43;;;;;;;0.60;0.60;;;;;;;32.01;29.75;98642.22;6212692;23;20026;-63
2021/08/22 07:04:12;;;;;;;3.33;0.52;;;;;;;32.05;29.42;98649.63;6212431;23;20017;-63
2021/08/22 07:06:38;;;;;;;1.00;0.75;;;;;;;32.07;29.69;98635.84;6212039;23;20116;-63
2021/08/22 07:09:04;;;;;;;0.28;0.22;;;;;;;32.10;29.32;98625.75;6211627;23;20123;-63
2021/08/22 07:11:30;;;;;;;1.20;0.50;;;;;;;32.12;29.23;98640.41;6211422;23;20012;-64
2021/08/22 07:13:55;;;;;;;0.30;0.30;;;;;;;32.14;29.27;98641.66;6211292;23;20346;-66
2021/08/22 07:16:21;;;;;;;1.05;0.73;;;;;;;32.16;29.21;98627.06;6211742;23;20349;-68
2021/08/22 07:18:47;;;;;;;0.50;0.50;;;;;;;32.19;29.11;98634.03;6203911;23;20111;-62
2021/08/22 07:21:13;;;;;;;0.40;0.30;;;;;;;32.23;29.04;98634.88;6209574;23;20091;-63
2021/08/22 07:23:38;;;;;;;1.00;0.63;;;;;;;32.27;29.04;98633.72;6209956;23;20011;-62
2021/08/22 07:26:04;;;;;;;0.13;0.13;;;;;;;32.33;29.03;98628.50;6210449;23;20009;-63
2021/08/22 07:28:30;;;;;;;0.50;0.32;;;;;;;32.40;28.68;98624.94;6210696;23;20016;-64
2021/08/22 07:30:55;;;;;;;0.47;0.47;;;;;;;32.42;28.60;98629.06;6211163;23;20016;-65
2021/08/22 07:33:21;;;;;;;0.25;0.25;;;;;;;32.45;28.49;98624.59;6211418;23;20009;-64
2021/08/22 07:35:47;;;;;;;3.47;0.17;;;;;;;32.48;28.60;98623.84;6213351;23;20060;-62
2021/08/22 07:38:13;;;;;;;0.13;0.13;;;;;;;32.51;28.56;98623.06;6214721;23;20098;-62
2021/08/22 07:40:39;;;;;;;0.10;0.10;;;;;;;32.51;28.56;98634.44;6214197;23;20441;-61
2021/08/22 07:43:05;;;;;;;0.20;0.20;;;;;;;32.55;28.47;98614.56;6214341;23;20051;-64
2021/08/22 07:45:30;;;;;;;0.45;0.45;;;;;;;32.56;28.38;98613.38;6214637;23;20017;-63
2021/08/22 07:47:56;;;;;;;0.75;0.50;;;;;;;32.58;28.46;98622.31;6214281;23;20084;-64
2021/08/22 07:50:22;;;;;;;0.25;0.20;;;;;;;32.61;28.47;98615.84;6214378;23;20040;-63
2021/08/22 07:52:47;;;;;;;0.20;0.20;;;;;;;32.62;28.05;98611.81;6214260;23;20013;-64
2021/08/22 07:55:13;;;;;;;0.32;0.20;;;;;;;32.68;28.08;98621.66;6213256;23;20095;-63
2021/08/22 07:57:39;;;;;;;0.93;0.38;;;;;;;32.71;27.84;98608.72;6214560;23;20016;-64
2021/08/22 08:00:05;;;;;;;0.28;0.28;;;;;;;32.74;28.12;98608.72;6213524;23;20457;-63
2021/08/22 08:02:31;;;;;;;1.17;0.77;;;;;;;32.76;27.76;98603.50;6215955;23;20017;-66
2021/08/22 08:04:57;;;;;;;0.40;0.40;;;;;;;32.79;27.66;98611.25;6218188;23;20039;-64
2021/08/22 08:07:22;;;;;;;2.58;0.45;;;;;;;32.85;27.67;98608.88;6228524;23;20060;-63
2021/08/22 08:09:48;;;;;;;2.13;0.68;;;;;;;32.88;27.62;98608.09;6217568;23;20087;-63
2021/08/22 08:12:14;;;;;;;0.10;0.10;;;;;;;32.93;27.43;98604.06;6216329;23;20087;-63
2021/08/22 08:14:39;;;;;;;0.17;0.17;;;;;;;32.97;27.54;98602.09;6189540;23;20008;-66
2021/08/22 08:17:06;;;;;;;0.40;0.40;;;;;;;32.96;27.35;98606.13;6216192;23;20019;-65
2021/08/22 08:19:32;;;;;;;1.02;0.63;;;;;;;32.98;27.21;98598.84;6215812;23;20008;-65
2021/08/22 08:21:58;;;;;;;1.42;0.63;;;;;;;33.03;27.51;98597.66;6216019;23;20008;-63
2021/08/22 08:24:24;;;;;;;0.20;0.20;;;;;;;33.11;27.18;98602.22;6216150;23;20088;-64
2021/08/22 08:26:50;;;;;;;1.38;0.85;;;;;;;33.14;27.10;98594.91;6215854;23;20004;-63
2021/08/22 08:29:15;;;;;;;0.43;0.43;;;;;;;33.16;27.07;98593.31;6216229;23;20044;-63
2021/08/22 08:31:41;;;;;;;0.82;0.52;;;;;;;33.17;27.06;98600.66;6216229;23;20055;-63
2021/08/22 08:34:07;;;;;;;0.55;0.35;;;;;;;33.18;27.24;98596.56;6189100;23;20369;-62
2021/08/22 08:36:32;;;;;;;0.38;0.38;;;;;;;33.23;27.09;98595.44;6215162;23;20019;-63
2021/08/22 08:38:58;;;;;;;0.40;0.40;;;;;;;33.26;26.87;98591.81;6215340;23;20090;-63
2021/08/22 08:41:24;;;;;;;0.20;0.20;;;;;;;33.28;26.73;98591.44;6215945;23;20516;-64
2021/08/22 08:43:49;;;;;;;0.10;0.10;;;;;;;33.29;26.77;98587.34;6216080;23;20013;-64
2021/08/22 08:46:43;;;;;;;0.30;0.30;;;;;;;33.33;26.68;98585.34;6189491;23;20012;-62
2021/08/22 08:49:33;;;;;;;0.30;0.30;;;;;;;33.36;26.74;98576.03;6216249;23;20020;-63
2021/08/22 08:52:14;;;;;;;0.30;0.30;;;;;;;33.36;26.67;98576.03;6201866;23;20441;-64
2021/08/22 08:54:42;;;;;;;0.10;0.10;;;;;;;33.35;26.85;98577.25;6215765;23;20021;-63
2021/08/22 08:57:08;;;;;;;0.73;0.73;;;;;;;33.41;26.79;98581.38;6215823;23;20472;-65
2021/08/22 08:59:38;;;;;;;0.93;0.50;;;;;;;33.44;26.43;98580.56;6215768;23;20032;-65
2021/08/22 09:02:04;;;;;;;0.57;0.52;;;;;;;33.47;26.56;98582.63;6215882;23;20099;-66
2021/08/22 09:04:36;;;;;;;0.57;0.57;;;;;;;33.48;26.34;98574.91;6215478;23;20012;-66
2021/08/22 09:07:39;;;;;;;0.15;0.15;;;;;;;33.47;26.41;98570.44;6215592;23;20291;-63
2021/08/22 09:10:42;;;;;;;0.85;0.20;;;;;;;33.44;26.53;98577.72;6215934;23;20013;-63
2021/08/22 09:13:39;;;;;;;3.40;0.50;;;;;;;33.41;26.61;98566.31;6215802;23;20009;-64
2021/08/22 09:16:42;;;;;;;0.30;0.30;;;;;;;33.42;26.51;98565.09;6215648;23;20012;-64
2021/08/22 09:19:34;;;;;;;0.20;0.20;;;;;;;33.41;26.63;98566.31;6215990;23;20012;-64
2021/08/22 09:22:36;;;;;;;0.20;0.20;;;;;;;33.43;26.60;98561.84;6215901;23;20020;-63
2021/08/22 09:25:36;;;;;;;0.22;0.22;;;;;;;33.48;26.54;98561.50;6188954;23;20514;-65
2021/08/22 09:28:39;;;;;;;0.20;0.20;;;;;;;33.49;26.37;98559.47;6215592;23;20032;-66
2021/08/22 09:31:29;;;;;;;0.43;0.43;;;;;;;33.46;26.42;98557.41;6215609;23;20012;-65
2021/08/22 09:34:25;;;;;;;0.45;0.45;;;;;;;33.51;26.04;98555.03;6214698;23;20012;-64
2021/08/22 09:37:11;;;;;;;2.08;0.63;;;;;;;33.53;26.29;98558.28;6214322;23;20099;-64
2021/08/22 09:40:14;;;;;;;0.73;0.63;;;;;;;33.58;26.03;98554.22;6214118;23;20519;-63
2021/08/22 09:43:35;;;;;;;0.45;0.43;;;;;;;33.61;26.25;98553.44;6215235;23;20447;-64
2021/08/22 09:46:39;;;;;;;0.20;0.20;;;;;;;33.63;25.76;98550.19;6215175;23;20353;-64
2021/08/22 09:49:27;;;;;;;1.45;0.55;;;;;;;33.64;25.88;98543.28;6215560;23;20012;-64
2021/08/22 09:52:18;;;;;;;0.20;0.20;;;;;;;33.65;26.01;98548.59;6215609;23;20015;-64
2021/08/22 09:54:44;;;;;;;0.13;0.13;;;;;;;33.67;25.91;98557.56;6215387;23;20027;-63
2021/08/22 09:57:55;;;;;;;0.35;0.35;;;;;;;33.68;25.81;98544.94;6215453;23;20079;-65
2021/08/22 10:00:29;;;;;;;1.27;0.50;;;;;;;33.69;26.03;98548.63;6180347;23;20092;-65
2021/08/22 10:03:10;;;;;;;0.85;0.63;;;;;;;33.70;25.81;98544.53;6219734;23;20008;-63
2021/08/22 10:05:50;;;;;;;0.13;0.13;;;;;;;33.71;25.60;98546.19;6215379;23;20012;-64
2021/08/22 10:08:40;;;;;;;0.30;0.30;;;;;;;33.72;25.81;98539.28;6215305;23;20009;-63
2021/08/22 10:11:20;;;;;;;0.28;0.28;;;;;;;33.69;25.68;98540.09;6215014;23;20035;-64
2021/08/22 10:13:46;;;;;;;0.52;0.52;;;;;;;33.65;25.94;98545.75;6215103;23;20008;-64
2021/08/22 10:16:11;;;;;;;0.32;0.32;;;;;;;33.63;25.83;98548.19;6214984;23;20012;-63
2021/08/22 10:18:37;;;;;;;0.68;0.68;;;;;;;33.60;26.00;98545.28;6215168;23;20012;-63
2021/08/22 10:21:07;;;;;;;0.60;0.60;;;;;;;33.57;25.86;98540.41;6215073;23;20069;-63
2021/08/22 10:23:37;;;;;;;0.50;0.38;;;;;;;33.56;25.93;98547.31;6214869;23;20028;-65
2021/08/22 10:26:04;;;;;;;0.20;0.20;;;;;;;33.52;25.72;98539.59;6215052;23;20090;-64
2021/08/22 10:28:44;;;;;;;0.40;0.40;;;;;;;33.50;25.74;98541.19;6214929;23;20038;-65
2021/08/22 10:31:11;;;;;;;2.05;0.68;;;;;;;33.46;25.90;98535.44;6214918;23;20063;-64
2021/08/22 10:34:12;;;;;;;0.20;0.20;;;;;;;33.45;25.89;98530.16;6214354;23;20019;-62
2021/08/22 10:36:38;;;;;;;0.22;0.20;;;;;;;33.40;25.94;98542.72;6214944;23;20012;-62
2021/08/22 10:39:22;;;;;;;0.32;0.30;;;;;;;33.38;26.01;98528.09;6215597;23;20044;-63
2021/08/22 10:41:52;;;;;;;0.73;0.73;;;;;;;33.37;25.52;98529.28;6214744;23;20024;-63
2021/08/22 10:44:35;;;;;;;2.28;0.43;;;;;;;33.37;25.86;98528.50;6215190;23;20015;-64
2021/08/22 10:47:09;;;;;;;0.43;0.43;;;;;;;33.37;25.79;98526.44;6214783;23;20012;-63
2021/08/22 10:49:50;;;;;;;0.70;0.45;;;;;;;33.35;25.87;98523.19;6214849;23;20016;-63
2021/08/22 10:52:23;;;;;;;0.25;0.25;;;;;;;33.33;25.76;98517.06;6215305;23;20349;-63
2021/08/22 10:55:10;;;;;;;0.43;0.43;;;;;;;33.31;25.86;98517.47;6214884;23;20028;-63
2021/08/22 10:57:56;;;;;;;0.73;0.63;;;;;;;33.32;25.45;98532.53;6215045;23;20473;-62
2021/08/22 11:00:26;;;;;;;0.25;0.25;;;;;;;33.33;25.59;98522.75;6214685;23;20442;-65
2021/08/22 11:03:02;;;;;;;0.30;0.30;;;;;;;33.32;25.74;98518.31;6214829;23;20031;-62
2021/08/22 11:05:32;;;;;;;0.38;0.38;;;;;;;33.30;25.48;98515.00;6214662;23;20079;-63
2021/08/22 11:08:32;;;;;;;0.28;0.25;;;;;;;33.32;25.71;98515.47;6214643;23;20009;-64
2021/08/22 11:11:02;;;;;;;1.63;0.60;;;;;;;33.31;25.59;98511.78;6150168;23;20015;-63
2021/08/22 11:13:30;;;;;;;0.30;0.30;;;;;;;33.31;25.46;98517.47;6214698;23;20008;-62
2021/08/22 11:16:03;;;;;;;0.10;0.10;;;;;;;33.31;25.37;98513.81;6213408;23;20401;-64
2021/08/22 11:18:28;;;;;;;0.17;0.17;;;;;;;33.30;25.38;98526.41;6212789;23;20005;-62
2021/08/22 11:20:54;;;;;;;0.32;0.32;;;;;;;33.27;25.68;98528.00;6214469;23;20028;-63
2021/08/22 11:23:21;;;;;;;0.52;0.52;;;;;;;33.26;25.34;98517.84;6214133;23;20004;-64
2021/08/22 11:25:51;;;;;;;0.32;0.32;;;;;;;33.25;25.64;98524.75;6214550;23;20429;-63
2021/08/22 11:28:18;;;;;;;0.77;0.35;;;;;;;33.25;25.33;98504.81;6213919;23;20008;-63
2021/08/22 11:30:46;;;;;;;0.85;0.30;;;;;;;33.23;25.53;98509.28;6213768;23;20028;-65
2021/08/22 11:33:13;;;;;;;0.30;0.30;;;;;;;33.21;25.43;98517.41;6213086;23;20012;-64
2021/08/22 11:35:41;;;;;;;0.65;0.35;;;;;;;33.19;25.39;98510.03;6212182;23;20008;-64
2021/08/22 11:38:08;;;;;;;2.03;1.10;;;;;;;33.17;25.42;98514.47;6186066;23;20009;-65
2021/08/22 11:40:34;;;;;;;0.30;0.30;;;;;;;33.16;25.62;98507.97;6212994;23;20008;-65
2021/08/22 11:43:03;;;;;;;0.47;0.40;;;;;;;33.14;25.41;98512.41;6213270;23;20011;-63
2021/08/22 11:45:39;;;;;;;0.28;0.28;;;;;;;33.12;25.23;98504.28;6212607;23;20013;-65
2021/08/22 11:48:07;;;;;;;0.20;0.20;;;;;;;33.10;25.14;98509.56;6213958;23;20005;-66
2021/08/22 11:50:36;;;;;;;0.22;0.22;;;;;;;33.08;25.33;98505.47;6186400;23;20019;-64
2021/08/22 11:53:04;;;;;;;1.10;0.90;;;;;;;33.04;25.33;98507.47;6224973;23;20009;-68
2021/08/22 11:55:32;;;;;;;0.40;0.40;;;;;;;33.03;25.34;98497.31;6215993;23;20012;-65
2021/08/22 11:58:19;;;;;;;1.17;0.40;;;;;;;33.00;25.28;98491.19;6212917;23;20009;-63
2021/08/22 12:00:47;;;;;;;0.10;0.10;;;;;;;32.99;25.33;98491.59;6212327;23;20012;-63
2021/08/22 12:03:15;;;;;;;0.55;0.55;;;;;;;32.96;25.41;98492.38;6212652;23;20087;-63
2021/08/22 12:06:20;;;;;;;0.35;0.35;;;;;;;32.95;25.13;98488.72;6186507;23;20040;-63
2021/08/22 12:08:49;;;;;;;1.17;1.08;;;;;;;32.94;25.49;98497.66;6195195;23;20339;-64
2021/08/22 12:11:17;;;;;;;0.80;0.80;;;;;;;32.92;25.45;98500.88;6212869;23;20048;-63
2021/08/22 12:13:45;;;;;;;0.52;0.50;;;;;;;32.92;24.99;98488.69;6213284;23;20016;-63
2021/08/22 12:16:23;;;;;;;0.50;0.50;;;;;;;32.89;25.29;98496.00;6212637;23;20070;-63
2021/08/22 12:19:35;;;;;;;0.20;0.20;;;;;;;32.87;25.44;98486.22;6211383;23;20016;-62
2021/08/22 12:32:50;;;;;;;0.32;0.25;;;;;;;32.65;25.30;98488.81;6202809;23;20027;-63
2021/08/22 12:46:07;;;;;;;0.45;0.43;;;;;;;32.48;25.33;98485.41;6203445;23;20063;-64
2021/08/22 12:49:12;;;;;;;0.20;0.20;;;;;;;32.47;25.18;98480.13;6202763;23;20432;-64
2021/08/22 15:00:21;;;;;;;0.22;0.20;;;;;;;29.03;27.12;98460.34;6237914;23;20027;-65
2021/08/22 15:02:46;;;;;;;0.30;0.30;;;;;;;28.95;27.21;98456.53;6242165;23;20353;-62
2021/08/22 15:05:12;;;;;;;0.22;0.22;;;;;;;28.88;27.51;98447.06;6214491;23;20008;-65
2021/08/22 15:07:38;;;;;;;1.10;0.63;;;;;;;28.80;27.36;98451.72;6214964;23;20039;-65
2021/08/22 15:10:04;;;;;;;0.35;0.22;;;;;;;28.74;27.44;98453.16;6241436;23;20016;-65
2021/08/22 15:12:30;;;;;;;0.68;0.60;;;;;;;28.66;27.66;98457.81;6241649;23;20040;-67
2021/08/22 15:14:56;;;;;;;7.18;1.23;;;;;;;28.59;27.51;98455.63;6241545;23;20507;-64
2021/08/22 15:17:21;;;;;;;0.43;0.38;;;;;;;28.50;27.98;98454.94;6241972;23;20126;-64
2021/08/22 15:19:47;;;;;;;0.35;0.35;;;;;;;28.42;27.73;98461.63;6240598;23;20015;-64
2021/08/22 15:22:13;;;;;;;0.10;0.10;;;;;;;28.35;27.87;98452.94;6240509;23;20017;-66
2021/08/22 15:24:39;;;;;;;0.75;0.65;;;;;;;28.28;27.90;98457.22;6214046;23;20019;-62